Terminal Aerodrome Forecast
Issued by NWS Newport/Morehead City, NC

Home | Current Version | Previous Version | Text Only | Print | Product List | Glossary On
Versions: 1 2 3 4 5 6 7 8 9 10 11 12 13
000
FTUS42 KMHX 252340
TAFEWN
TAF
KEWN 252340Z 2600/2624 13003KT P6SM -RA SCT025 OVC040
     FM260100 19005KT 5SM -RA BR SCT007 OVC020
     FM260500 VRB03KT 3SM BR OVC005
     FM261500 02008KT P6SM VCSH OVC015=

USA.gov is the U.S. government's official web portal to all federal, state and local government web resources and services.